Macon, Georgia
Current Conditions -  °F | °C
As of 5:53 PM on Wednesday 22 Oct 2014 (Local Time) from KMCN Reporting Station
Clear Clear  
Wind Chill: 69°   Ceiling: Unl
Heat Index: 69°   Visibility: 10mi
Dew Point: 42°   Wind: 8mph
Humidity: 38%   Direction: 10°N
Pressure: 30.05"   Gusts: NA
Location:  32.84°N, 83.64°W
Report Text: KMCN 222153Z 01007KT 10SM CLR 21/06 A3005 RMK AO2 SLP172 T02060056
Loading
Personal Weather Stations






























Interactive Weather Map New forecast layout! Learn more

10-Day Weather Forecast

Advertisements
Track Severe Weather on mobile